createdAt,value
2022-07-29T00:00:58.758Z,16.81
2022-07-29T00:03:44.674Z,16.82
2022-07-29T00:06:30.053Z,16.80
2022-07-29T00:09:15.598Z,16.76
2022-07-29T00:12:02.287Z,16.74
2022-07-29T00:14:48.080Z,16.70
2022-07-29T00:17:35.160Z,16.67
2022-07-29T00:20:20.917Z,16.60
2022-07-29T00:23:06.588Z,16.59
2022-07-29T00:26:21.366Z,16.59
2022-07-29T00:29:32.922Z,16.59
2022-07-29T00:32:12.862Z,16.57
2022-07-29T00:35:16.816Z,16.57
2022-07-29T00:42:44.061Z,16.55
2022-07-29T00:45:30.972Z,16.51
2022-07-29T00:52:38.485Z,16.42
2022-07-29T00:55:23.802Z,16.36
2022-07-29T00:58:09.763Z,16.35
2022-07-29T01:00:55.722Z,16.34
2022-07-29T01:03:41.152Z,16.31
2022-07-29T01:06:27.709Z,16.31
2022-07-29T01:09:14.316Z,16.28
2022-07-29T01:12:01.145Z,16.14
2022-07-29T01:14:48.442Z,16.12
2022-07-29T01:17:53.347Z,16.14
2022-07-29T01:21:42.342Z,16.14
2022-07-29T01:29:08.447Z,15.97
2022-07-29T01:41:09.353Z,15.87
2022-07-29T01:53:10.249Z,15.85
2022-07-29T01:55:58.223Z,15.73
2022-07-29T01:58:46.697Z,15.61
2022-07-29T02:01:34.205Z,15.64
2022-07-29T02:04:30.037Z,15.71
2022-07-29T02:07:20.462Z,15.78
2022-07-29T02:10:08.132Z,15.83
2022-07-29T02:12:56.217Z,15.84
2022-07-29T02:15:43.678Z,15.87
2022-07-29T02:18:31.788Z,15.93
2022-07-29T02:21:22.396Z,15.96
2022-07-29T02:24:12.392Z,15.98
2022-07-29T02:27:01.160Z,16.00
2022-07-29T02:29:48.595Z,16.03
2022-07-29T02:33:26.123Z,16.05
2022-07-29T02:36:12.533Z,15.94
2022-07-29T02:39:01.777Z,15.90
2022-07-29T02:42:00.851Z,15.85
2022-07-29T02:44:46.402Z,15.81
2022-07-29T02:47:41.818Z,15.80
2022-07-29T02:50:34.853Z,15.81
2022-07-29T02:53:25.006Z,15.83
2022-07-29T02:56:15.583Z,15.85
2022-07-29T02:59:05.224Z,15.87
2022-07-29T03:01:53.399Z,15.87
2022-07-29T03:04:42.639Z,15.85
2022-07-29T03:07:28.823Z,15.85
2022-07-29T03:10:14.749Z,15.86
2022-07-29T03:13:02.063Z,15.88
2022-07-29T03:15:48.740Z,15.90
2022-07-29T03:18:51.108Z,15.90
2022-07-29T03:21:37.435Z,15.86
2022-07-29T03:29:06.441Z,15.80
2022-07-29T03:31:52.872Z,15.78
2022-07-29T03:34:39.097Z,15.75
2022-07-29T03:37:24.673Z,15.73
2022-07-29T03:40:12.807Z,15.67
2022-07-29T03:43:07.360Z,15.58
2022-07-29T03:46:10.661Z,15.55
2022-07-29T03:49:01.399Z,15.52
2022-07-29T03:51:47.892Z,15.46
2022-07-29T03:59:20.845Z,15.35
2022-07-29T04:06:44.148Z,15.23
2022-07-29T04:09:30.734Z,15.10
2022-07-29T04:13:24.113Z,14.95
2022-07-29T04:16:35.413Z,14.89
2022-07-29T04:19:21.812Z,14.98
2022-07-29T04:22:30.088Z,15.12
2022-07-29T04:25:16.361Z,15.21
2022-07-29T04:28:02.886Z,15.25
2022-07-29T04:30:49.100Z,15.31
2022-07-29T04:33:35.301Z,15.34
2022-07-29T04:40:40.607Z,15.34
2022-07-29T04:43:28.108Z,15.28
2022-07-29T04:46:19.860Z,15.30
2022-07-29T04:49:06.818Z,15.52
2022-07-29T04:51:53.302Z,15.63
2022-07-29T04:54:39.741Z,15.75
2022-07-29T04:57:26.088Z,16.01
2022-07-29T05:00:12.801Z,16.26
2022-07-29T05:02:59.411Z,16.66
2022-07-29T05:05:45.784Z,17.15
2022-07-29T05:08:32.154Z,17.91
2022-07-29T05:11:21.762Z,18.69
2022-07-29T05:14:08.959Z,19.34
2022-07-29T05:16:57.771Z,19.85
2022-07-29T05:19:43.867Z,19.96
2022-07-29T05:22:30.325Z,19.78
2022-07-29T05:25:16.233Z,19.60
2022-07-29T05:28:02.702Z,19.51
2022-07-29T05:30:49.390Z,19.35
2022-07-29T05:33:37.093Z,19.16
2022-07-29T05:36:23.595Z,18.97
2022-07-29T05:39:09.871Z,18.89
2022-07-29T05:41:56.235Z,18.81
2022-07-29T05:44:42.623Z,19.10
2022-07-29T05:47:29.221Z,19.70
2022-07-29T05:50:15.040Z,20.40
2022-07-29T05:53:01.636Z,20.92
2022-07-29T05:56:08.743Z,20.80
2022-07-29T05:58:55.258Z,20.67
2022-07-29T06:01:42.889Z,20.68
2022-07-29T06:04:29.194Z,20.72
2022-07-29T06:07:15.409Z,20.61
2022-07-29T06:10:01.272Z,20.45
2022-07-29T06:12:47.583Z,20.25
2022-07-29T06:15:33.821Z,20.03
2022-07-29T06:18:22.069Z,19.90
2022-07-29T06:21:10.703Z,19.77
2022-07-29T06:23:57.015Z,19.66
2022-07-29T06:26:43.516Z,19.57
2022-07-29T06:29:29.863Z,19.51
2022-07-29T06:32:15.764Z,19.54
2022-07-29T06:35:24.524Z,19.56
2022-07-29T06:38:30.930Z,19.61
2022-07-29T06:41:20.436Z,19.90
2022-07-29T06:44:06.544Z,20.36
2022-07-29T06:46:52.840Z,20.52
2022-07-29T06:49:39.130Z,20.73
2022-07-29T06:52:26.573Z,20.95
2022-07-29T06:55:12.911Z,21.22
2022-07-29T06:58:12.047Z,21.64
2022-07-29T07:00:59.456Z,21.83
2022-07-29T07:04:15.114Z,21.89
2022-07-29T07:07:01.203Z,21.80
2022-07-29T07:09:47.578Z,21.63
2022-07-29T07:12:34.004Z,21.47
2022-07-29T07:15:23.080Z,21.34
2022-07-29T07:18:50.896Z,21.21
2022-07-29T07:21:36.705Z,21.16
2022-07-29T07:24:22.677Z,21.07
2022-07-29T07:27:15.646Z,21.03
2022-07-29T07:30:04.282Z,20.99
2022-07-29T07:36:57.329Z,20.98
2022-07-29T07:39:43.012Z,21.01
2022-07-29T07:42:28.689Z,21.05
2022-07-29T07:45:23.260Z,21.04
2022-07-29T07:48:11.162Z,21.10
2022-07-29T07:51:23.350Z,21.18
2022-07-29T07:54:20.835Z,21.26
2022-07-29T07:57:06.880Z,21.36
2022-07-29T07:59:56.456Z,21.41
2022-07-29T08:02:43.862Z,21.43
2022-07-29T08:05:29.271Z,21.41
2022-07-29T08:08:15.464Z,21.30
2022-07-29T08:15:47.840Z,21.00
2022-07-29T08:22:54.639Z,20.88
2022-07-29T08:25:40.525Z,20.89
2022-07-29T08:28:26.261Z,20.94
2022-07-29T08:31:11.792Z,20.95
2022-07-29T08:33:57.501Z,20.93
2022-07-29T08:36:44.684Z,20.89
2022-07-29T08:39:54.777Z,20.91
2022-07-29T08:42:40.384Z,20.96
2022-07-29T08:45:26.572Z,21.03
2022-07-29T08:48:35.893Z,21.05
2022-07-29T08:51:22.840Z,21.08
2022-07-29T08:54:11.200Z,21.12
2022-07-29T08:56:57.340Z,21.15
2022-07-29T08:59:43.998Z,21.17
2022-07-29T09:02:36.408Z,21.17
2022-07-29T09:05:23.533Z,21.12
2022-07-29T09:08:09.246Z,21.14
2022-07-29T09:10:56.854Z,21.15
2022-07-29T09:13:43.529Z,21.10
2022-07-29T09:16:53.421Z,21.02
2022-07-29T09:19:45.359Z,20.94
2022-07-29T09:22:32.979Z,20.89
2022-07-29T09:25:38.806Z,20.88
2022-07-29T09:28:24.917Z,20.89
2022-07-29T09:31:11.531Z,20.92
2022-07-29T09:34:01.365Z,20.93
2022-07-29T09:36:51.134Z,20.92
2022-07-29T09:39:47.266Z,20.90
2022-07-29T09:42:35.178Z,20.95
2022-07-29T09:45:32.348Z,20.85
2022-07-29T09:48:24.280Z,20.86
2022-07-29T09:51:24.097Z,20.88
2022-07-29T09:54:28.690Z,20.98
2022-07-29T09:57:31.069Z,20.83
2022-07-29T10:00:20.049Z,20.72
2022-07-29T10:03:05.897Z,20.72
2022-07-29T10:06:14.696Z,20.65
2022-07-29T10:09:10.981Z,20.64
2022-07-29T10:12:12.192Z,20.40
2022-07-29T10:14:58.365Z,20.23
2022-07-29T10:17:45.722Z,20.03
2022-07-29T10:20:32.088Z,19.84
2022-07-29T10:23:18.503Z,19.68
2022-07-29T10:26:05.299Z,19.53
2022-07-29T10:28:51.508Z,19.44
2022-07-29T10:32:00.704Z,19.42
2022-07-29T10:35:08.562Z,19.35
2022-07-29T10:38:28.916Z,19.37
2022-07-29T10:41:44.075Z,19.44
2022-07-29T10:44:30.877Z,19.51
2022-07-29T10:47:26.768Z,19.54
2022-07-29T10:50:17.142Z,19.58
2022-07-29T10:53:04.930Z,19.71
2022-07-29T10:55:55.237Z,19.86
2022-07-29T10:58:42.411Z,20.04
2022-07-29T11:01:39.169Z,20.16
2022-07-29T11:04:44.519Z,20.16
2022-07-29T11:07:45.813Z,20.20
2022-07-29T11:10:32.693Z,20.40
2022-07-29T11:13:51.513Z,20.56
2022-07-29T11:17:05.803Z,20.76
2022-07-29T11:19:52.814Z,20.93
2022-07-29T11:22:45.834Z,21.00
2022-07-29T11:25:51.013Z,21.20
2022-07-29T11:28:49.857Z,21.40
2022-07-29T11:31:45.909Z,21.52
2022-07-29T11:34:34.895Z,21.68
2022-07-29T11:37:28.290Z,21.76
2022-07-29T11:40:16.545Z,21.91
2022-07-29T11:48:31.381Z,22.27
2022-07-29T11:51:18.382Z,22.40
2022-07-29T11:54:06.188Z,22.54
2022-07-29T11:57:01.949Z,22.74
2022-07-29T11:59:48.731Z,22.92
2022-07-29T12:02:48.785Z,23.00
2022-07-29T12:05:40.266Z,23.03
2022-07-29T12:08:43.596Z,23.12
2022-07-29T12:11:29.893Z,23.23
2022-07-29T12:14:33.547Z,23.38
2022-07-29T12:17:30.901Z,23.63
2022-07-29T12:20:29.812Z,23.80
2022-07-29T12:23:17.415Z,23.98
2022-07-29T12:26:07.721Z,24.13
2022-07-29T12:28:56.724Z,24.15
2022-07-29T12:31:45.350Z,24.13
2022-07-29T12:34:35.308Z,24.23
2022-07-29T12:37:21.253Z,24.39
2022-07-29T12:40:54.676Z,24.49
2022-07-29T12:43:54.021Z,24.59
2022-07-29T12:46:40.084Z,24.64
2022-07-29T12:49:26.097Z,24.77
2022-07-29T12:52:33.320Z,24.95
2022-07-29T12:55:39.440Z,25.15
2022-07-29T12:58:34.413Z,25.26
2022-07-29T13:01:21.744Z,25.23
2022-07-29T13:04:07.588Z,25.26
2022-07-29T13:07:10.522Z,25.44
2022-07-29T13:10:11.433Z,25.53
2022-07-29T13:13:07.415Z,25.66
2022-07-29T13:16:08.910Z,25.97
2022-07-29T13:19:13.505Z,26.11
2022-07-29T13:21:59.941Z,26.35
2022-07-29T13:24:49.511Z,26.48
2022-07-29T13:27:37.572Z,26.68
2022-07-29T13:30:24.451Z,26.84
2022-07-29T13:40:36.882Z,26.94
2022-07-29T13:43:23.771Z,26.94
2022-07-29T13:46:09.533Z,27.00
2022-07-29T13:48:55.638Z,27.17
2022-07-29T13:52:00.695Z,27.21
2022-07-29T13:54:48.007Z,27.27
2022-07-29T13:57:33.932Z,27.35
2022-07-29T14:01:19.856Z,27.46
2022-07-29T14:04:06.026Z,27.51
2022-07-29T14:06:52.749Z,27.59
2022-07-29T14:10:30.565Z,27.68
2022-07-29T14:13:24.375Z,27.75
2022-07-29T14:16:11.388Z,27.82
2022-07-29T14:19:51.704Z,27.85
2022-07-29T14:22:42.632Z,27.82
2022-07-29T14:26:21.470Z,27.69
2022-07-29T14:29:37.038Z,27.68
2022-07-29T14:32:58.660Z,27.50
2022-07-29T14:35:46.719Z,27.28
2022-07-29T14:38:32.703Z,27.20
2022-07-29T14:41:19.064Z,27.10
2022-07-29T14:44:05.464Z,27.10
2022-07-29T14:46:51.448Z,27.12
2022-07-29T14:50:41.460Z,27.21
2022-07-29T14:53:54.490Z,27.31
2022-07-29T14:57:41.782Z,27.30
2022-07-29T15:00:28.048Z,27.29
2022-07-29T15:03:14.007Z,27.25
2022-07-29T15:06:19.747Z,27.19
2022-07-29T15:09:06.080Z,27.13
2022-07-29T15:11:51.770Z,27.03
2022-07-29T15:14:37.751Z,26.97
2022-07-29T15:23:00.276Z,26.79
2022-07-29T15:25:46.489Z,26.67
2022-07-29T15:28:32.777Z,26.65
2022-07-29T15:31:19.947Z,26.60
2022-07-29T15:34:06.559Z,26.60
2022-07-29T15:37:49.629Z,26.44
2022-07-29T15:45:59.602Z,25.99
2022-07-29T15:58:14.227Z,24.93
2022-07-29T16:00:59.989Z,24.73
2022-07-29T16:04:12.809Z,24.39
2022-07-29T16:11:50.942Z,24.08
2022-07-29T16:19:23.907Z,23.90
2022-07-29T16:22:51.611Z,23.82
2022-07-29T16:25:59.100Z,23.77
2022-07-29T16:33:54.343Z,23.71
2022-07-29T16:36:39.203Z,23.64
2022-07-29T16:39:25.082Z,23.58
2022-07-29T16:42:21.263Z,23.52
2022-07-29T16:45:45.787Z,23.46
2022-07-29T16:48:32.511Z,23.38
2022-07-29T16:51:18.325Z,23.29
2022-07-29T16:54:33.864Z,23.19
2022-07-29T16:57:20.106Z,23.15
2022-07-29T17:00:07.448Z,23.15
2022-07-29T17:03:15.316Z,23.12
2022-07-29T17:06:54.491Z,23.08
2022-07-29T17:09:41.051Z,23.05
2022-07-29T17:13:30.414Z,23.01
2022-07-29T17:16:16.986Z,22.98
2022-07-29T17:19:03.871Z,22.98
2022-07-29T17:21:50.238Z,23.01
2022-07-29T17:24:36.617Z,23.03
2022-07-29T17:27:24.498Z,23.05
2022-07-29T17:30:11.239Z,23.04
2022-07-29T17:32:57.433Z,22.95
2022-07-29T17:36:02.716Z,22.90
2022-07-29T17:38:48.951Z,22.88
2022-07-29T17:41:34.961Z,22.80
2022-07-29T17:44:20.838Z,22.75
2022-07-29T17:47:15.878Z,22.55
2022-07-29T17:50:02.843Z,22.15
2022-07-29T17:52:48.957Z,21.94
2022-07-29T17:55:35.458Z,21.64
2022-07-29T17:58:21.916Z,21.65
2022-07-29T18:01:08.153Z,21.40
2022-07-29T18:03:56.178Z,21.40
2022-07-29T18:09:44.074Z,20.95
2022-07-29T18:12:30.063Z,20.84
2022-07-29T18:15:16.065Z,20.81
2022-07-29T18:18:04.501Z,20.70
2022-07-29T18:20:53.602Z,20.52
2022-07-29T18:23:39.660Z,20.32
2022-07-29T18:26:29.052Z,20.27
2022-07-29T18:29:16.990Z,20.28
2022-07-29T18:32:03.565Z,20.34
2022-07-29T18:34:50.068Z,20.34
2022-07-29T18:38:00.894Z,20.35
2022-07-29T18:40:44.605Z,20.33
2022-07-29T18:43:30.664Z,20.31
2022-07-29T18:46:16.599Z,20.37
2022-07-29T18:49:03.938Z,20.39
2022-07-29T18:51:50.464Z,20.44
2022-07-29T18:54:36.488Z,20.42
2022-07-29T18:57:54.559Z,20.43
2022-07-29T19:00:28.596Z,20.45
2022-07-29T19:03:15.218Z,20.48
2022-07-29T19:06:01.359Z,20.49
2022-07-29T19:08:47.712Z,20.50
2022-07-29T19:11:34.315Z,20.52
2022-07-29T19:14:20.139Z,20.53
2022-07-29T19:17:09.072Z,20.55
2022-07-29T19:19:55.767Z,20.55
2022-07-29T19:22:42.023Z,20.49
2022-07-29T19:25:27.965Z,20.44
2022-07-29T19:28:15.950Z,20.41
2022-07-29T19:31:01.879Z,20.36
2022-07-29T19:33:48.390Z,20.31
2022-07-29T19:36:35.171Z,20.29
2022-07-29T19:39:33.326Z,20.28
2022-07-29T19:42:21.387Z,20.30
2022-07-29T19:45:07.767Z,20.30
2022-07-29T19:47:59.023Z,20.25
2022-07-29T19:50:45.335Z,20.12
2022-07-29T19:53:32.400Z,20.10
2022-07-29T19:56:18.499Z,20.13
2022-07-29T19:59:05.485Z,20.11
2022-07-29T20:01:53.970Z,20.04
2022-07-29T20:04:39.955Z,19.96
2022-07-29T20:07:25.590Z,19.82
2022-07-29T20:10:11.883Z,19.64
2022-07-29T20:12:58.247Z,19.54
2022-07-29T20:15:44.291Z,19.47
2022-07-29T20:18:30.421Z,19.39
2022-07-29T20:21:16.819Z,19.37
2022-07-29T20:24:04.874Z,19.33
2022-07-29T20:26:51.486Z,19.28
2022-07-29T20:29:38.349Z,19.27
2022-07-29T20:32:24.360Z,19.21
2022-07-29T20:35:12.007Z,19.18
2022-07-29T20:37:57.752Z,19.14
2022-07-29T20:40:43.208Z,19.09
2022-07-29T20:43:28.881Z,18.97
2022-07-29T20:46:14.331Z,18.72
2022-07-29T20:48:59.918Z,18.50
2022-07-29T20:51:46.858Z,18.44
2022-07-29T20:54:32.453Z,18.32
2022-07-29T20:57:18.201Z,18.23
2022-07-29T21:00:23.784Z,18.19
2022-07-29T21:03:09.199Z,18.17
2022-07-29T21:05:55.110Z,18.20
2022-07-29T21:08:40.751Z,18.25
2022-07-29T21:11:44.747Z,18.32
2022-07-29T21:14:36.671Z,18.35
2022-07-29T21:17:22.373Z,18.37
2022-07-29T21:20:08.914Z,18.38
2022-07-29T21:22:55.582Z,18.36
2022-07-29T21:25:40.867Z,18.34
2022-07-29T21:28:30.868Z,18.27
2022-07-29T21:31:16.833Z,18.21
2022-07-29T21:34:02.369Z,18.19
2022-07-29T21:36:58.793Z,18.19
2022-07-29T21:39:44.389Z,18.21
2022-07-29T21:42:29.707Z,18.19
2022-07-29T21:45:15.242Z,18.18
2022-07-29T21:48:00.878Z,18.19
2022-07-29T21:50:48.323Z,18.18
2022-07-29T21:53:34.170Z,18.19
2022-07-29T21:56:19.484Z,18.21
2022-07-29T21:59:09.766Z,18.24
2022-07-29T22:01:56.609Z,18.24
2022-07-29T22:04:42.331Z,18.22
2022-07-29T22:07:56.563Z,18.20
2022-07-29T22:10:33.700Z,18.22
2022-07-29T22:13:19.123Z,18.23
2022-07-29T22:16:04.911Z,18.24
2022-07-29T22:18:50.427Z,18.25
2022-07-29T22:21:35.734Z,18.21
2022-07-29T22:24:21.286Z,18.23
2022-07-29T22:27:06.962Z,18.24
2022-07-29T22:29:52.481Z,18.24
2022-07-29T22:32:37.934Z,18.26
2022-07-29T22:35:23.306Z,18.26
2022-07-29T22:38:09.176Z,18.26
2022-07-29T22:40:54.819Z,18.27
2022-07-29T22:43:46.265Z,18.29
2022-07-29T22:46:34.151Z,18.26
2022-07-29T22:49:20.036Z,18.24
2022-07-29T22:52:05.814Z,18.21
2022-07-29T22:54:51.485Z,18.16
2022-07-29T22:57:37.361Z,18.11
2022-07-29T23:00:22.968Z,18.00
2022-07-29T23:03:08.519Z,17.96
2022-07-29T23:05:54.182Z,17.98
2022-07-29T23:08:39.739Z,17.96
2022-07-29T23:11:25.181Z,17.96
2022-07-29T23:14:10.433Z,17.96
2022-07-29T23:16:55.962Z,17.96
2022-07-29T23:19:41.655Z,17.96
2022-07-29T23:22:27.053Z,17.98
2022-07-29T23:25:12.474Z,17.98
2022-07-29T23:27:57.793Z,17.99
2022-07-29T23:30:43.611Z,18.00
2022-07-29T23:33:29.385Z,18.01
2022-07-29T23:36:14.601Z,18.03
2022-07-29T23:38:59.938Z,18.03
2022-07-29T23:41:45.292Z,18.02
2022-07-29T23:44:30.773Z,18.02
2022-07-29T23:47:16.288Z,17.99
2022-07-29T23:50:01.828Z,17.99
2022-07-29T23:52:47.586Z,17.99
2022-07-29T23:55:36.710Z,17.98
2022-07-29T23:58:24.330Z,17.92
